Time;durP1;ratioP1;P1;durP2;ratioP2;P2;SDS_P1;SDS_P2;PMS_P1;PMS_P2;Temp;Humidity;BMP_temperature;BMP_pressure;BME280_temperature;BME280_humidity;BME280_pressure;Samples;Min_cycle;Max_cycle;Signal;HPM_P1;HPM_P2
2022/06/22 00:02:28;;;;;;;0.30;0.30;;;20.80;1.00;;;;;;5051419;28;20203;-77
2022/06/22 00:05:00;;;;;;;0.30;0.30;;;20.70;1.00;;;;;;5051679;28;20199;-76
2022/06/22 00:07:35;;;;;;;0.20;0.20;;;20.60;1.00;;;;;;5050694;28;20640;-77
2022/06/22 00:10:31;;;;;;;0.30;0.30;;;20.50;1.00;;;;;;5050642;28;20170;-77
2022/06/22 00:13:00;;;;;;;0.30;0.30;;;20.40;1.00;;;;;;5045781;28;20239;-77
2022/06/22 00:15:34;;;;;;;0.30;0.30;;;20.40;1.00;;;;;;5050608;28;20640;-77
2022/06/22 00:18:02;;;;;;;0.20;0.20;;;20.30;1.00;;;;;;5051279;28;20194;-78
2022/06/22 00:20:31;;;;;;;0.30;0.30;;;20.20;1.00;;;;;;5050939;28;20711;-77
2022/06/22 00:23:25;;;;;;;0.30;0.30;;;20.20;1.00;;;;;;5054229;28;20230;-78
2022/06/22 00:25:51;;;;;;;0.30;0.30;;;20.20;1.00;;;;;;5055312;28;20179;-77
2022/06/22 00:28:32;;;;;;;0.30;0.30;;;20.20;1.00;;;;;;5055240;28;20223;-78
2022/06/22 00:31:10;;;;;;;0.30;0.30;;;20.20;1.00;;;;;;5054329;28;20183;-77
2022/06/22 00:33:35;;;;;;;0.30;0.30;;;20.10;1.00;;;;;;5054196;28;20210;-76
2022/06/22 00:36:01;;;;;;;0.30;0.30;;;20.10;1.00;;;;;;5053971;28;20551;-77
2022/06/22 00:38:31;;;;;;;0.30;0.30;;;20.10;1.00;;;;;;5054754;28;20224;-77
2022/06/22 00:41:13;;;;;;;0.30;0.30;;;20.00;1.00;;;;;;5054111;28;20221;-77
2022/06/22 00:43:38;;;;;;;0.30;0.30;;;20.00;11.70;;;;;;5054465;28;20654;-76
2022/06/22 00:46:18;;;;;;;0.30;0.30;;;20.00;18.10;;;;;;5054108;28;20179;-77
2022/06/22 00:48:46;;;;;;;0.30;0.30;;;19.90;24.60;;;;;;5054658;28;20254;-77
2022/06/22 00:51:22;;;;;;;0.33;0.33;;;19.90;24.10;;;;;;5053514;28;20202;-77
2022/06/22 00:53:54;;;;;;;0.37;0.37;;;19.90;20.30;;;;;;5054560;28;20301;-77
2022/06/22 00:56:26;;;;;;;0.30;0.30;;;19.90;26.20;;;;;;5074699;28;20175;-77
2022/06/22 00:59:10;;;;;;;0.33;0.33;;;19.90;35.80;;;;;;5073694;28;20253;-76
2022/06/22 01:01:47;;;;;;;0.30;0.30;;;19.90;37.00;;;;;;5073726;28;20194;-77
2022/06/22 01:04:25;;;;;;;0.30;0.30;;;19.90;35.70;;;;;;5073575;28;20227;-77
2022/06/22 01:07:01;;;;;;;0.37;0.37;;;19.90;27.30;;;;;;5073289;28;20174;-77
2022/06/22 01:09:36;;;;;;;0.27;0.27;;;19.90;28.20;;;;;;5073111;28;20256;-77
2022/06/22 01:12:22;;;;;;;0.30;0.30;;;19.90;33.70;;;;;;5073643;28;20193;-77
2022/06/22 01:15:12;;;;;;;0.30;0.30;;;19.90;53.70;;;;;;5074249;28;20189;-77
2022/06/22 01:17:45;;;;;;;0.30;0.30;;;19.80;67.90;;;;;;5074159;28;20217;-76
2022/06/22 01:20:24;;;;;;;0.30;0.30;;;19.80;72.80;;;;;;5073398;28;20173;-77
2022/06/22 01:23:06;;;;;;;0.30;0.30;;;19.80;69.70;;;;;;5073967;28;20194;-77
2022/06/22 01:25:50;;;;;;;0.30;0.30;;;19.80;75.80;;;;;;5073773;28;20182;-77
2022/06/22 01:28:17;;;;;;;0.30;0.30;;;19.90;68.80;;;;;;5073426;28;20170;-77
2022/06/22 01:30:47;;;;;;;0.30;0.30;;;19.90;56.50;;;;;;5072747;28;20180;-77
2022/06/22 01:33:39;;;;;;;0.30;0.30;;;19.90;38.30;;;;;;5072276;28;20217;-77
2022/06/22 01:36:15;;;;;;;0.30;0.30;;;19.90;23.40;;;;;;5073329;28;20179;-77
2022/06/22 01:38:40;;;;;;;0.30;0.30;;;19.90;36.70;;;;;;5073762;28;20175;-76
2022/06/22 01:41:31;;;;;;;0.30;0.30;;;19.90;58.20;;;;;;5072950;28;20201;-77
2022/06/22 01:44:39;;;;;;;0.30;0.30;;;19.80;87.00;;;;;;5073205;28;20665;-77
2022/06/22 01:47:24;;;;;;;0.30;0.30;;;19.70;99.90;;;;;;5064252;28;20190;-77
2022/06/22 01:49:55;;;;;;;0.30;0.30;;;19.60;99.90;;;;;;5071914;28;20178;-77
2022/06/22 01:52:43;;;;;;;0.30;0.30;;;19.60;99.90;;;;;;5072535;28;20214;-76
2022/06/22 01:55:50;;;;;;;0.30;0.30;;;19.60;99.90;;;;;;5060794;28;20811;-77
2022/06/22 01:58:18;;;;;;;0.30;0.30;;;19.60;99.90;;;;;;5052647;28;20171;-77
2022/06/22 02:00:49;;;;;;;0.30;0.30;;;19.60;99.90;;;;;;5051960;28;20175;-76
2022/06/22 02:03:34;;;;;;;0.30;0.30;;;19.60;99.90;;;;;;5052119;28;20187;-76
2022/06/22 02:08:57;;;;;;;0.30;0.30;;;19.70;99.90;;;;;;5051846;28;20233;-76
2022/06/22 02:11:27;;;;;;;0.30;0.30;;;19.60;99.90;;;;;;5052077;28;20936;-77
2022/06/22 02:14:19;;;;;;;0.30;0.30;;;19.60;99.90;;;;;;5052220;28;20215;-77
2022/06/22 02:16:53;;;;;;;0.30;0.30;;;19.70;99.90;;;;;;5052258;28;20191;-78
2022/06/22 02:19:20;;;;;;;0.30;0.30;;;19.70;99.90;;;;;;5052092;28;20690;-77
2022/06/22 02:21:49;;;;;;;0.30;0.30;;;19.90;95.90;;;;;;5052699;28;20229;-77
2022/06/22 02:24:26;;;;;;;0.30;0.30;;;20.00;97.20;;;;;;5052458;28;20270;-77
2022/06/22 02:27:04;;;;;;;0.30;0.30;;;20.00;99.90;;;;;;5052108;28;20179;-77
2022/06/22 02:29:40;;;;;;;0.30;0.30;;;20.00;99.90;;;;;;5051514;28;20659;-76
2022/06/22 02:32:12;;;;;;;0.30;0.30;;;19.90;99.90;;;;;;5051701;28;20226;-77
2022/06/22 02:34:41;;;;;;;0.30;0.30;;;19.80;99.90;;;;;;5052096;28;20222;-77
2022/06/22 02:37:08;;;;;;;0.30;0.30;;;19.80;99.90;;;;;;5052023;28;20182;-76
2022/06/22 02:39:39;;;;;;;0.30;0.30;;;19.70;99.90;;;;;;5049950;28;20695;-77
2022/06/22 02:44:50;;;;;;;0.30;0.30;;;19.60;99.90;;;;;;5050839;28;20248;-78
2022/06/22 02:47:19;;;;;;;0.30;0.30;;;19.60;99.90;;;;;;5051884;28;20171;-77
2022/06/22 02:49:55;;;;;;;0.30;0.30;;;19.60;99.90;;;;;;5051074;28;20182;-77
2022/06/22 02:52:26;;;;;;;0.40;0.40;;;19.50;99.90;;;;;;5051430;28;20301;-77
2022/06/22 02:54:55;;;;;;;0.30;0.30;;;19.50;99.90;;;;;;5051288;28;20203;-76
2022/06/22 02:57:53;;;;;;;0.37;0.37;;;19.50;99.90;;;;;;5049816;28;20555;-76
2022/06/22 03:00:25;;;;;;;0.30;0.30;;;19.50;99.90;;;;;;5050831;28;20800;-77
2022/06/22 03:02:56;;;;;;;0.30;0.30;;;19.50;99.90;;;;;;5051183;28;20214;-76
2022/06/22 03:05:23;;;;;;;0.40;0.40;;;19.60;99.90;;;;;;5051356;28;20178;-77
2022/06/22 03:07:52;;;;;;;0.30;0.30;;;19.60;99.90;;;;;;5050125;28;20178;-77
2022/06/22 03:10:38;;;;;;;0.40;0.40;;;19.60;99.90;;;;;;5050843;28;20183;-77
2022/06/22 03:13:04;;;;;;;0.30;0.30;;;19.50;99.90;;;;;;5057763;28;20215;-77
2022/06/22 03:15:35;;;;;;;0.20;0.20;;;19.50;99.90;;;;;;5059254;28;20562;-77
2022/06/22 03:18:02;;;;;;;0.30;0.30;;;19.50;99.90;;;;;;5059633;28;20266;-78
2022/06/22 03:20:34;;;;;;;0.30;0.30;;;19.50;99.90;;;;;;5053543;28;20203;-76
2022/06/22 03:23:12;;;;;;;0.30;0.30;;;19.50;99.90;;;;;;5052541;28;20199;-76
2022/06/22 03:25:46;;;;;;;0.30;0.30;;;19.50;99.90;;;;;;5056530;28;20652;-77
2022/06/22 03:28:21;;;;;;;0.30;0.30;;;19.50;99.90;;;;;;5054278;28;20270;-76
2022/06/22 03:30:54;;;;;;;0.40;0.40;;;19.40;99.90;;;;;;5051718;28;20175;-76
2022/06/22 03:33:29;;;;;;;0.30;0.30;;;19.40;99.90;;;;;;5052492;28;20723;-76
2022/06/22 03:35:59;;;;;;;0.30;0.30;;;19.50;99.90;;;;;;5053479;28;20171;-76
2022/06/22 03:38:29;;;;;;;0.33;0.33;;;19.40;99.90;;;;;;5052490;28;20194;-76
2022/06/22 03:41:03;;;;;;;0.30;0.30;;;19.40;99.90;;;;;;5052496;28;20672;-75
2022/06/22 03:43:55;;;;;;;0.30;0.30;;;19.40;99.90;;;;;;5052507;28;20168;-75
2022/06/22 03:46:41;;;;;;;0.30;0.30;;;19.40;99.90;;;;;;5045311;28;20843;-75
2022/06/22 03:49:13;;;;;;;0.30;0.30;;;19.50;99.90;;;;;;5050795;28;20542;-76
2022/06/22 03:52:03;;;;;;;0.30;0.30;;;19.50;99.90;;;;;;5051025;28;20227;-76
2022/06/22 03:54:50;;;;;;;0.30;0.30;;;19.40;99.90;;;;;;5056290;28;20190;-75
2022/06/22 03:57:23;;;;;;;0.30;0.30;;;19.40;99.90;;;;;;5072720;28;20182;-75
2022/06/22 03:59:49;;;;;;;0.30;0.30;;;19.40;99.90;;;;;;5073843;28;20197;-75
2022/06/22 04:02:17;;;;;;;0.40;0.40;;;19.40;99.90;;;;;;5074480;28;20589;-76
2022/06/22 04:04:43;;;;;;;0.30;0.30;;;19.40;99.90;;;;;;5074433;28;20520;-75
2022/06/22 04:07:13;;;;;;;0.30;0.30;;;19.40;99.90;;;;;;5066608;28;20182;-75
2022/06/22 04:09:51;;;;;;;0.40;0.40;;;19.50;99.90;;;;;;5053717;28;20224;-75
2022/06/22 04:12:26;;;;;;;0.33;0.33;;;19.50;99.90;;;;;;5054681;28;20219;-77
2022/06/22 04:15:23;;;;;;;0.30;0.30;;;19.50;99.90;;;;;;5055232;28;20194;-77
2022/06/22 04:17:54;;;;;;;0.30;0.30;;;19.60;99.90;;;;;;5054876;28;20597;-77
2022/06/22 04:20:51;;;;;;;0.30;0.30;;;19.60;99.90;;;;;;5054049;28;20198;-77
2022/06/22 04:23:22;;;;;;;0.30;0.30;;;19.70;99.90;;;;;;5050007;28;20235;-77
2022/06/22 04:25:48;;;;;;;0.30;0.30;;;19.80;99.90;;;;;;5048029;28;20172;-77
2022/06/22 04:28:15;;;;;;;0.30;0.30;;;19.80;99.90;;;;;;5036938;28;20553;-78
2022/06/22 04:30:49;;;;;;;0.30;0.30;;;19.90;99.90;;;;;;5035953;28;20183;-77
2022/06/22 04:33:29;;;;;;;0.40;0.40;;;19.90;99.90;;;;;;5033943;28;20228;-77
2022/06/22 04:36:15;;;;;;;0.30;0.30;;;19.90;99.90;;;;;;5034787;28;20278;-79
2022/06/22 04:38:49;;;;;;;0.30;0.30;;;19.90;99.90;;;;;;5034529;28;20180;-78
2022/06/22 04:41:33;;;;;;;0.30;0.30;;;19.90;99.90;;;;;;5034013;28;20179;-77
2022/06/22 04:44:13;;;;;;;0.30;0.30;;;19.90;99.90;;;;;;5035557;28;20218;-78
2022/06/22 04:46:43;;;;;;;0.30;0.30;;;19.90;99.90;;;;;;5035357;28;20659;-77
2022/06/22 04:49:25;;;;;;;0.30;0.30;;;19.90;99.90;;;;;;5037238;28;20226;-78
2022/06/22 04:51:57;;;;;;;0.30;0.30;;;20.00;99.90;;;;;;5038672;28;20215;-79
2022/06/22 04:54:30;;;;;;;0.23;0.23;;;20.10;99.90;;;;;;5048884;28;20201;-78
2022/06/22 04:56:57;;;;;;;0.30;0.30;;;20.20;99.90;;;;;;5070065;28;20175;-78
2022/06/22 04:59:24;;;;;;;0.30;0.30;;;20.20;99.90;;;;;;5055149;28;20194;-79
2022/06/22 05:01:52;;;;;;;0.40;0.40;;;20.20;99.90;;;;;;5055314;28;20191;-78
2022/06/22 05:04:24;;;;;;;0.20;0.20;;;20.20;99.90;;;;;;5056741;28;20181;-79
2022/06/22 05:07:19;;;;;;;0.30;0.30;;;20.20;99.90;;;;;;5055700;28;20175;-79
2022/06/22 05:10:05;;;;;;;0.30;0.30;;;20.40;99.90;;;;;;5054979;28;20249;-80
2022/06/22 05:12:44;;;;;;;0.40;0.40;;;20.50;99.90;;;;;;5055263;28;20211;-79
2022/06/22 05:15:18;;;;;;;0.37;0.37;;;20.50;99.90;;;;;;5056129;28;20178;-80
2022/06/22 05:17:43;;;;;;;0.30;0.30;;;20.60;99.90;;;;;;5054844;28;20181;-79
2022/06/22 05:20:18;;;;;;;0.40;0.40;;;20.60;99.90;;;;;;5053326;28;20171;-79
2022/06/22 05:22:45;;;;;;;0.33;0.33;;;20.70;99.90;;;;;;5054759;28;20217;-80
2022/06/22 05:25:13;;;;;;;0.30;0.30;;;20.80;99.90;;;;;;5055352;28;20171;-80
2022/06/22 05:28:08;;;;;;;0.30;0.30;;;20.70;99.90;;;;;;5055843;28;20187;-79
2022/06/22 05:30:40;;;;;;;0.27;0.27;;;20.80;99.90;;;;;;5045506;28;20179;-78
2022/06/22 05:33:13;;;;;;;0.30;0.30;;;20.80;99.90;;;;;;5052081;28;20203;-78
2022/06/22 05:35:50;;;;;;;0.30;0.30;;;20.90;99.90;;;;;;5052577;28;20182;-77
2022/06/22 05:38:18;;;;;;;0.30;0.30;;;21.10;99.90;;;;;;5051534;28;20228;-81
2022/06/22 05:40:46;;;;;;;0.33;0.33;;;21.30;99.90;;;;;;5050132;28;20208;-80
2022/06/22 05:43:13;;;;;;;0.40;0.40;;;21.40;99.90;;;;;;5053993;28;20694;-80
2022/06/22 05:45:51;;;;;;;0.30;0.30;;;21.40;99.20;;;;;;5054217;28;20256;-80
2022/06/22 05:48:23;;;;;;;0.30;0.30;;;21.40;99.90;;;;;;5053903;28;20187;-80
2022/06/22 05:50:54;;;;;;;0.33;0.33;;;21.40;99.90;;;;;;5053581;28;20175;-80
2022/06/22 05:53:29;;;;;;;0.20;0.20;;;21.50;99.90;;;;;;5054050;28;20242;-79
2022/06/22 05:56:22;;;;;;;0.20;0.20;;;21.50;99.90;;;;;;5072143;28;20178;-80
2022/06/22 05:59:12;;;;;;;0.30;0.30;;;21.50;99.90;;;;;;5072397;28;20175;-78
2022/06/22 06:02:12;;;;;;;0.30;0.30;;;21.50;99.90;;;;;;5055819;28;20263;-78
2022/06/22 06:04:44;;;;;;;0.30;0.30;;;21.60;99.90;;;;;;5048900;28;20175;-79
2022/06/22 06:07:25;;;;;;;0.30;0.30;;;21.60;99.90;;;;;;5049903;28;20550;-79
2022/06/22 06:09:50;;;;;;;0.30;0.30;;;21.70;99.90;;;;;;5051004;28;20172;-79
2022/06/22 06:12:27;;;;;;;0.30;0.30;;;21.70;99.90;;;;;;5050155;28;20722;-80
2022/06/22 06:14:53;;;;;;;0.30;0.30;;;21.70;99.90;;;;;;5048200;28;20167;-79
2022/06/22 06:17:30;;;;;;;0.30;0.30;;;21.70;99.90;;;;;;5013560;28;1041725;-78
2022/06/22 06:19:58;;;;;;;0.40;0.40;;;21.60;99.90;;;;;;5048899;28;20183;-78
2022/06/22 06:22:25;;;;;;;0.30;0.30;;;21.60;99.90;;;;;;5050555;28;20246;-78
2022/06/22 06:27:43;;;;;;;0.30;0.30;;;21.40;99.90;;;;;;5052406;28;20237;-78
2022/06/22 06:30:37;;;;;;;0.33;0.33;;;21.40;99.90;;;;;;5051946;28;20187;-78
2022/06/22 06:33:15;;;;;;;0.27;0.27;;;21.40;99.90;;;;;;5045703;28;20379;-77
2022/06/22 06:35:52;;;;;;;0.30;0.30;;;21.40;99.90;;;;;;5050551;28;20314;-78
2022/06/22 06:38:34;;;;;;;0.30;0.30;;;21.40;99.90;;;;;;5051855;28;20660;-77
2022/06/22 06:41:05;;;;;;;0.20;0.20;;;21.40;99.90;;;;;;5039362;28;20182;-78
2022/06/22 06:43:33;;;;;;;0.30;0.30;;;21.40;99.90;;;;;;5050274;28;20179;-77
2022/06/22 06:46:00;;;;;;;0.30;0.30;;;21.40;99.90;;;;;;5052926;28;20171;-78
2022/06/22 06:48:28;;;;;;;0.30;0.30;;;21.40;99.90;;;;;;5053004;28;20223;-78
2022/06/22 06:50:58;;;;;;;0.40;0.40;;;21.20;99.90;;;;;;5054820;28;20168;-77
2022/06/22 06:53:34;;;;;;;0.30;0.30;;;21.20;99.90;;;;;;5054423;28;20372;-77
2022/06/22 06:56:11;;;;;;;0.30;0.30;;;21.20;99.90;;;;;;5060172;28;20185;-77
2022/06/22 06:58:45;;;;;;;0.30;0.30;;;21.20;99.90;;;;;;5056555;28;20182;-77
2022/06/22 07:01:22;;;;;;;0.30;0.30;;;21.10;99.90;;;;;;5054982;28;20178;-77
2022/06/22 07:03:51;;;;;;;0.30;0.30;;;21.10;99.90;;;;;;5054643;28;20213;-77
2022/06/22 07:06:17;;;;;;;0.30;0.30;;;21.00;99.90;;;;;;5055605;28;20171;-77
2022/06/22 07:08:56;;;;;;;0.30;0.30;;;20.90;99.90;;;;;;5056077;28;20195;-78
2022/06/22 07:11:41;;;;;;;0.40;0.40;;;20.90;99.90;;;;;;5052326;28;20718;-78
2022/06/22 07:14:19;;;;;;;0.20;0.20;;;20.90;99.90;;;;;;5048877;28;20206;-77
2022/06/22 07:16:45;;;;;;;0.30;0.30;;;20.80;99.90;;;;;;5055714;28;20274;-77
2022/06/22 07:19:33;;;;;;;0.30;0.30;;;20.80;99.90;;;;;;5060762;28;20242;-78
2022/06/22 07:22:12;;;;;;;0.30;0.30;;;20.70;99.90;;;;;;5058920;28;20225;-78
2022/06/22 07:25:00;;;;;;;0.20;0.20;;;20.70;99.90;;;;;;5055926;28;20258;-78
2022/06/22 07:27:33;;;;;;;0.30;0.30;;;20.70;99.90;;;;;;5058684;28;20237;-78
2022/06/22 07:30:11;;;;;;;0.30;0.30;;;20.80;99.90;;;;;;5059326;28;20179;-77
2022/06/22 07:33:07;;;;;;;0.30;0.30;;;20.80;99.90;;;;;;5058450;28;20761;-78
2022/06/22 07:35:44;;;;;;;0.30;0.30;;;20.70;99.90;;;;;;5058064;28;20600;-78
2022/06/22 07:38:34;;;;;;;0.40;0.40;;;20.70;99.90;;;;;;5059088;28;20175;-78
2022/06/22 07:41:19;;;;;;;0.30;0.30;;;20.80;99.90;;;;;;5065587;28;20182;-78
2022/06/22 07:43:49;;;;;;;0.30;0.30;;;20.90;99.90;;;;;;5063980;28;20814;-78
2022/06/22 07:46:42;;;;;;;0.30;0.30;;;21.00;99.90;;;;;;5065800;28;20179;-77
2022/06/22 07:49:13;;;;;;;0.30;0.30;;;21.20;99.90;;;;;;5061078;28;20183;-77
2022/06/22 07:51:48;;;;;;;0.30;0.30;;;21.20;99.90;;;;;;5061333;28;20206;-77
2022/06/22 07:54:20;;;;;;;0.30;0.30;;;21.30;99.90;;;;;;5061028;28;20206;-78
2022/06/22 07:56:55;;;;;;;0.30;0.30;;;21.50;99.90;;;;;;5064664;28;20667;-78
2022/06/22 07:59:27;;;;;;;0.20;0.20;;;21.60;99.90;;;;;;5057595;28;20193;-78
2022/06/22 08:01:58;;;;;;;0.30;0.30;;;21.70;99.90;;;;;;5060872;28;20573;-78
2022/06/22 08:04:36;;;;;;;0.40;0.40;;;21.80;99.90;;;;;;5061380;28;20190;-78
2022/06/22 08:07:16;;;;;;;0.30;0.30;;;22.00;99.90;;;;;;5061697;28;20699;-78
2022/06/22 08:09:55;;;;;;;0.30;0.30;;;22.10;99.90;;;;;;5056703;28;20255;-78
2022/06/22 08:12:53;;;;;;;0.30;0.30;;;22.20;99.90;;;;;;5061027;28;20279;-78
2022/06/22 08:15:21;;;;;;;0.20;0.20;;;22.50;96.40;;;;;;5042088;28;20199;-79
2022/06/22 08:17:56;;;;;;;0.40;0.40;;;22.70;99.90;;;;;;5039257;28;20183;-78
2022/06/22 08:20:29;;;;;;;0.20;0.20;;;22.90;3.70;;;;;;5043929;28;20171;-78
2022/06/22 08:22:57;;;;;;;0.30;0.30;;;22.90;1.00;;;;;;5054370;28;20199;-78
2022/06/22 08:25:23;;;;;;;0.30;0.30;;;22.80;1.00;;;;;;5057174;28;20183;-77
2022/06/22 08:27:50;;;;;;;0.30;0.30;;;22.90;1.00;;;;;;5056453;28;20203;-78
2022/06/22 08:30:16;;;;;;;0.30;0.30;;;22.80;38.60;;;;;;5055736;28;20179;-78
2022/06/22 08:32:45;;;;;;;0.30;0.30;;;22.70;1.00;;;;;;5058920;28;20207;-78
2022/06/22 08:35:23;;;;;;;0.30;0.30;;;22.60;1.00;;;;;;5059367;28;20171;-79
2022/06/22 08:38:10;;;;;;;0.40;0.40;;;22.50;11.40;;;;;;5058065;28;20232;-78
2022/06/22 08:41:10;;;;;;;0.30;0.30;;;22.50;27.50;;;;;;5057130;28;20193;-78
2022/06/22 08:44:05;;;;;;;0.30;0.30;;;22.40;12.70;;;;;;5062586;28;20179;-78
2022/06/22 08:47:08;;;;;;;0.30;0.30;;;22.40;58.60;;;;;;5059781;28;20183;-78
2022/06/22 08:50:07;;;;;;;0.30;0.30;;;22.40;65.90;;;;;;5056732;28;20182;-78
2022/06/22 08:53:00;;;;;;;0.30;0.30;;;22.40;24.00;;;;;;5057319;28;20222;-78
2022/06/22 08:55:42;;;;;;;0.30;0.30;;;22.40;1.00;;;;;;5052644;28;20186;-78
2022/06/22 08:58:29;;;;;;;0.30;0.30;;;22.40;1.00;;;;;;5047894;28;20179;-78
2022/06/22 09:01:20;;;;;;;0.40;0.40;;;22.30;1.00;;;;;;5053608;28;20562;-78
2022/06/22 09:04:17;;;;;;;0.30;0.30;;;22.30;1.00;;;;;;5052592;28;20183;-78
2022/06/22 09:07:09;;;;;;;0.40;0.40;;;22.30;1.00;;;;;;5027176;28;20191;-78
2022/06/22 09:09:41;;;;;;;0.30;0.30;;;22.40;17.90;;;;;;5046978;28;20187;-79
2022/06/22 09:12:42;;;;;;;0.33;0.33;;;22.30;23.10;;;;;;5052216;28;20209;-78
2022/06/22 09:15:30;;;;;;;0.30;0.30;;;22.30;1.00;;;;;;5017169;28;20606;-81
2022/06/22 09:18:38;;;;;;;0.30;0.30;;;22.30;1.00;;;;;;5025406;28;20212;-78
2022/06/22 09:21:38;;;;;;;0.30;0.30;;;22.30;1.00;;;;;;5033847;28;20259;-78
2022/06/22 09:24:18;;;;;;;0.30;0.30;;;22.30;1.00;;;;;;5033416;28;20230;-78
2022/06/22 09:27:08;;;;;;;0.30;0.30;;;22.30;22.60;;;;;;5033743;28;20182;-78
2022/06/22 09:29:40;;;;;;;0.30;0.30;;;22.30;44.50;;;;;;5033125;28;20603;-78
2022/06/22 09:32:29;;;;;;;0.30;0.30;;;22.30;99.90;;;;;;5042627;28;20195;-78
2022/06/22 09:35:08;;;;;;;0.30;0.30;;;22.30;99.90;;;;;;5067580;28;20286;-78
2022/06/22 09:38:13;;;;;;;0.30;0.30;;;22.30;99.90;;;;;;5053692;28;20175;-78
2022/06/22 09:40:47;;;;;;;0.20;0.20;;;22.30;99.90;;;;;;4997395;28;20268;-79
2022/06/22 09:43:12;;;;;;;0.33;0.33;;;22.30;62.20;;;;;;5045494;28;20214;-78
2022/06/22 09:46:06;;;;;;;0.30;0.30;;;22.30;1.00;;;;;;5053392;28;20179;-78
2022/06/22 09:48:47;;;;;;;0.40;0.40;;;22.30;47.80;;;;;;5045727;28;20266;-78
2022/06/22 09:51:36;;;;;;;0.30;0.30;;;22.30;79.30;;;;;;5051445;28;20179;-78
2022/06/22 09:58:07;;;;;;;0.30;0.30;;;22.20;1.00;;;;;;5029087;28;20631;-78
2022/06/22 10:00:51;;;;;;;0.30;0.30;;;22.30;1.00;;;;;;5004135;28;20177;-78
2022/06/22 10:03:51;;;;;;;0.30;0.30;;;22.30;1.00;;;;;;4991698;28;20276;-78
2022/06/22 10:06:23;;;;;;;0.30;0.30;;;22.20;1.00;;;;;;5023017;28;20350;-78
2022/06/22 10:08:55;;;;;;;0.30;0.30;;;22.10;1.00;;;;;;5051881;28;20175;-78
2022/06/22 10:11:39;;;;;;;0.30;0.30;;;22.10;1.00;;;;;;5046700;28;20679;-79
2022/06/22 10:14:41;;;;;;;0.27;0.27;;;22.10;1.00;;;;;;5047937;28;20229;-78
2022/06/22 10:17:34;;;;;;;0.37;0.37;;;22.10;1.00;;;;;;5049120;28;20195;-80
2022/06/22 10:20:14;;;;;;;0.30;0.30;;;22.10;1.00;;;;;;5047274;28;20182;-79
2022/06/22 10:23:06;;;;;;;0.30;0.30;;;22.00;1.00;;;;;;5050421;28;20210;-79
2022/06/22 10:25:52;;;;;;;0.40;0.40;;;22.00;1.00;;;;;;5049330;28;20656;-79
2022/06/22 10:28:47;;;;;;;0.30;0.30;;;22.10;1.00;;;;;;5051559;28;20266;-78
2022/06/22 10:31:50;;;;;;;0.37;0.37;;;22.00;1.00;;;;;;5051914;28;20178;-79
2022/06/22 10:34:56;;;;;;;0.30;0.30;;;22.00;1.00;;;;;;5050829;28;20207;-79
2022/06/22 10:37:49;;;;;;;0.23;0.23;;;22.00;48.70;;;;;;4969950;28;20228;-79
2022/06/22 10:46:38;;;;;;;0.30;0.30;;;21.90;99.90;;;;;;5033619;28;20183;-80
2022/06/22 10:49:25;;;;;;;0.30;0.30;;;22.00;99.90;;;;;;5033505;28;20171;-78
2022/06/22 10:52:10;;;;;;;0.40;0.40;;;22.00;99.90;;;;;;5032803;28;20616;-79
2022/06/22 10:55:00;;;;;;;0.40;0.40;;;22.00;99.90;;;;;;5047007;28;20190;-78
2022/06/22 10:57:25;;;;;;;0.30;0.30;;;21.90;99.90;;;;;;5074332;28;20174;-79
2022/06/22 11:00:03;;;;;;;0.30;0.30;;;21.90;94.00;;;;;;5072845;28;20639;-78
2022/06/22 11:02:53;;;;;;;0.30;0.30;;;21.80;25.80;;;;;;5061092;28;20282;-79
2022/06/22 11:05:43;;;;;;;0.40;0.40;;;21.80;56.20;;;;;;5048822;28;20192;-80
2022/06/22 11:08:30;;;;;;;0.30;0.30;;;21.80;1.00;;;;;;5046337;28;20179;-79
2022/06/22 11:11:15;;;;;;;0.20;0.20;;;21.80;22.70;;;;;;5052727;28;20183;-78
2022/06/22 11:14:08;;;;;;;0.40;0.40;;;21.90;34.20;;;;;;5048373;28;20240;-77
2022/06/22 11:17:14;;;;;;;0.40;0.40;;;22.00;37.90;;;;;;5048891;28;20575;-78
2022/06/22 11:19:56;;;;;;;0.20;0.20;;;22.00;12.30;;;;;;5032793;28;20218;-78
2022/06/22 11:22:35;;;;;;;0.27;0.27;;;22.00;1.00;;;;;;5051689;28;20690;-77
2022/06/22 11:31:16;;;;;;;0.37;0.37;;;21.90;34.70;;;;;;5040743;28;20241;-77
2022/06/22 11:34:16;;;;;;;0.30;0.30;;;21.90;58.50;;;;;;5045840;28;20222;-78
2022/06/22 11:37:00;;;;;;;0.30;0.30;;;22.00;90.20;;;;;;5041113;28;20305;-77
2022/06/22 11:39:26;;;;;;;0.33;0.33;;;21.90;83.90;;;;;;5049857;28;20179;-77
2022/06/22 11:42:31;;;;;;;0.40;0.40;;;22.20;89.00;;;;;;5042915;28;20278;-77
2022/06/22 11:47:53;;;;;;;0.30;0.30;;;22.30;43.30;;;;;;5043838;28;20194;-78
2022/06/22 11:50:43;;;;;;;0.30;0.30;;;22.40;50.60;;;;;;5050024;28;20183;-76
2022/06/22 11:53:28;;;;;;;0.27;0.27;;;22.60;62.60;;;;;;5035406;28;20267;-76
2022/06/22 11:55:59;;;;;;;0.40;0.40;;;22.70;39.20;;;;;;5059543;28;20175;-77
2022/06/22 11:58:51;;;;;;;0.40;0.40;;;22.80;28.50;;;;;;5046476;28;20180;-78
2022/06/22 12:01:54;;;;;;;0.33;0.33;;;22.80;1.00;;;;;;5042361;28;20191;-76
2022/06/22 12:05:14;;;;;;;0.27;0.27;;;22.80;1.00;;;;;;5050694;28;20183;-78
2022/06/22 12:08:06;;;;;;;0.30;0.30;;;22.90;1.00;;;;;;4994735;28;20224;-77
2022/06/22 12:11:04;;;;;;;0.40;0.40;;;23.30;1.00;;;;;;5031282;28;20172;-77
2022/06/22 12:16:53;;;;;;;0.30;0.30;;;23.70;99.90;;;;;;5030759;28;20249;-77
2022/06/22 12:19:41;;;;;;;0.30;0.30;;;23.50;99.90;;;;;;5033806;28;20689;-76
2022/06/22 12:22:27;;;;;;;0.30;0.30;;;23.50;99.90;;;;;;5036513;28;20207;-79
2022/06/22 12:25:14;;;;;;;0.40;0.40;;;23.40;99.90;;;;;;5055197;28;20178;-77
2022/06/22 12:27:42;;;;;;;0.30;0.30;;;23.40;99.90;;;;;;5055154;28;20171;-78
2022/06/22 12:30:55;;;;;;;0.30;0.30;;;23.30;99.90;;;;;;5056130;28;20581;-77
2022/06/22 12:33:26;;;;;;;0.33;0.33;;;23.20;1.00;;;;;;5042325;28;20220;-77
2022/06/22 12:36:14;;;;;;;0.30;0.30;;;23.20;1.00;;;;;;5057633;28;20179;-77
2022/06/22 12:38:51;;;;;;;0.20;0.20;;;23.10;1.00;;;;;;5057842;28;20660;-77
2022/06/22 12:41:44;;;;;;;0.20;0.20;;;23.10;1.00;;;;;;5057693;28;20196;-77
2022/06/22 12:44:25;;;;;;;0.30;0.30;;;23.20;1.00;;;;;;5057015;28;20175;-77
2022/06/22 12:47:12;;;;;;;0.40;0.40;;;23.20;99.90;;;;;;5056902;28;20221;-77
2022/06/22 12:50:33;;;;;;;0.30;0.30;;;23.30;1.00;;;;;;5056262;28;20195;-77
2022/06/22 12:53:27;;;;;;;0.30;0.30;;;23.40;99.90;;;;;;5058001;28;20223;-77
2022/06/22 12:56:03;;;;;;;0.30;0.30;;;23.30;99.90;;;;;;5067368;28;20196;-78
2022/06/22 12:58:57;;;;;;;0.30;0.30;;;23.30;1.00;;;;;;5074100;28;20674;-77
2022/06/22 13:01:23;;;;;;;0.40;0.40;;;23.40;99.90;;;;;;5049015;28;20536;-77
2022/06/22 13:03:55;;;;;;;0.30;0.30;;;23.30;99.90;;;;;;5077150;28;20174;-77
2022/06/22 13:06:24;;;;;;;0.30;0.30;;;23.30;99.90;;;;;;5074644;28;20179;-77
2022/06/22 13:08:50;;;;;;;0.37;0.37;;;23.30;1.00;;;;;;5040349;28;20210;-78
2022/06/22 13:11:23;;;;;;;0.30;0.30;;;23.30;99.90;;;;;;5062361;28;20179;-77
2022/06/22 13:13:58;;;;;;;0.40;0.40;;;23.30;99.90;;;;;;5061456;28;20219;-78
2022/06/22 13:16:37;;;;;;;0.30;0.30;;;23.50;99.90;;;;;;5063092;28;20558;-77
2022/06/22 13:19:20;;;;;;;0.30;0.30;;;23.40;99.90;;;;;;5065263;28;20171;-77
2022/06/22 13:22:05;;;;;;;0.37;0.37;;;23.10;1.00;;;;;;5066112;28;20201;-78
2022/06/22 13:24:49;;;;;;;0.30;0.30;;;23.20;1.00;;;;;;5050652;28;20180;-78
2022/06/22 13:27:32;;;;;;;0.30;0.30;;;23.30;1.00;;;;;;5058563;28;20179;-78
2022/06/22 13:30:29;;;;;;;0.40;0.40;;;23.30;99.90;;;;;;5049213;28;20178;-78
2022/06/22 13:32:59;;;;;;;0.40;0.40;;;23.30;1.00;;;;;;5054418;28;20237;-77
2022/06/22 13:35:33;;;;;;;0.30;0.30;;;23.20;99.90;;;;;;5058200;28;20589;-78
2022/06/22 13:38:17;;;;;;;0.20;0.20;;;23.30;99.90;;;;;;5057990;28;20199;-78
2022/06/22 13:41:09;;;;;;;0.37;0.37;;;23.40;1.00;;;;;;5056473;28;20198;-78
2022/06/22 13:43:50;;;;;;;0.30;0.30;;;23.50;1.00;;;;;;5056261;28;20653;-79
2022/06/22 13:46:36;;;;;;;0.33;0.33;;;23.70;1.00;;;;;;5054552;28;20269;-78
2022/06/22 13:49:27;;;;;;;0.33;0.33;;;24.00;99.90;;;;;;5056587;28;20656;-78
2022/06/22 13:52:04;;;;;;;0.30;0.30;;;24.30;1.00;;;;;;5057213;28;20198;-79
2022/06/22 13:54:56;;;;;;;0.40;0.40;;;24.60;1.00;;;;;;5071517;28;20206;-78
2022/06/22 13:57:48;;;;;;;0.30;0.30;;;24.80;99.90;;;;;;5086166;28;20188;-78
2022/06/22 14:00:19;;;;;;;0.40;0.40;;;25.00;99.90;;;;;;5083846;28;20502;-78
2022/06/22 14:02:45;;;;;;;0.30;0.30;;;25.10;1.00;;;;;;5073818;28;20213;-81
2022/06/22 14:05:26;;;;;;;0.30;0.30;;;25.20;1.00;;;;;;5055055;28;20404;-81
2022/06/22 14:08:13;;;;;;;0.30;0.30;;;25.30;1.00;;;;;;5051815;28;20261;-81
2022/06/22 14:10:45;;;;;;;0.30;0.30;;;25.50;1.00;;;;;;5050960;28;20183;-81
2022/06/22 14:13:25;;;;;;;0.40;0.40;;;25.60;1.00;;;;;;5052583;28;20211;-83
2022/06/22 14:16:12;;;;;;;0.40;0.40;;;25.60;1.00;;;;;;5051845;28;20552;-81
2022/06/22 14:19:03;;;;;;;0.30;0.30;;;25.50;1.00;;;;;;5053479;28;20178;-82
2022/06/22 14:21:34;;;;;;;0.30;0.30;;;25.50;1.00;;;;;;5054930;28;20218;-81
2022/06/22 14:24:24;;;;;;;0.30;0.30;;;25.40;1.00;;;;;;5053193;28;20707;-80
2022/06/22 14:27:09;;;;;;;0.50;0.50;;;25.30;1.00;;;;;;5054883;28;20179;-80